sensor_id;sensor_type;location;lat;lon;timestamp;pressure;altitude;pressure_sealevel;temperature;humidity
65227;BME280;51805;49.012;12.104;2023-05-12T00:02:23;97561.06;;;22.70;54.78
65227;BME280;51805;49.012;12.104;2023-05-12T00:04:48;97565.69;;;22.70;54.74
65227;BME280;51805;49.012;12.104;2023-05-12T00:07:13;97561.63;;;22.67;54.74
65227;BME280;51805;49.012;12.104;2023-05-12T00:09:38;97565.88;;;22.73;54.90
65227;BME280;51805;49.012;12.104;2023-05-12T00:12:04;97567.00;;;22.72;54.77
65227;BME280;51805;49.012;12.104;2023-05-12T00:14:29;97559.69;;;22.73;54.85
65227;BME280;51805;49.012;12.104;2023-05-12T00:16:55;97551.63;;;22.68;54.79
65227;BME280;51805;49.012;12.104;2023-05-12T00:19:20;97558.88;;;22.72;54.74
65227;BME280;51805;49.012;12.104;2023-05-12T00:21:46;97554.28;;;22.73;54.61
65227;BME280;51805;49.012;12.104;2023-05-12T00:24:12;97544.31;;;22.68;54.80
65227;BME280;51805;49.012;12.104;2023-05-12T00:26:37;97545.91;;;22.69;54.85
65227;BME280;51805;49.012;12.104;2023-05-12T00:29:03;97549.44;;;22.70;54.90
65227;BME280;51805;49.012;12.104;2023-05-12T00:31:29;97548.84;;;22.73;54.77
65227;BME280;51805;49.012;12.104;2023-05-12T00:33:54;97540.50;;;22.69;54.67
65227;BME280;51805;49.012;12.104;2023-05-12T00:36:19;97548.63;;;22.69;54.79
65227;BME280;51805;49.012;12.104;2023-05-12T00:38:44;97546.44;;;22.71;54.69
65227;BME280;51805;49.012;12.104;2023-05-12T00:41:10;97542.66;;;22.67;54.67
65227;BME280;51805;49.012;12.104;2023-05-12T00:43:35;97541.59;;;22.68;54.75
65227;BME280;51805;49.012;12.104;2023-05-12T00:46:01;97552.13;;;22.70;54.70
65227;BME280;51805;49.012;12.104;2023-05-12T00:48:28;97539.75;;;22.64;54.66
65227;BME280;51805;49.012;12.104;2023-05-12T00:50:54;97549.72;;;22.68;54.70
65227;BME280;51805;49.012;12.104;2023-05-12T00:53:20;97536.47;;;22.67;54.66
65227;BME280;51805;49.012;12.104;2023-05-12T00:55:45;97539.19;;;22.67;54.54
65227;BME280;51805;49.012;12.104;2023-05-12T00:58:11;97540.06;;;22.62;54.59
65227;BME280;51805;49.012;12.104;2023-05-12T01:00:36;97550.00;;;22.67;54.59
65227;BME280;51805;49.012;12.104;2023-05-12T01:03:01;97541.59;;;22.68;54.50
65227;BME280;51805;49.012;12.104;2023-05-12T01:05:31;97557.84;;;22.68;54.75
65227;BME280;51805;49.012;12.104;2023-05-12T01:08:01;97547.34;;;22.62;54.50
65227;BME280;51805;49.012;12.104;2023-05-12T01:10:27;97555.44;;;22.67;54.54
65227;BME280;51805;49.012;12.104;2023-05-12T01:12:52;97552.44;;;22.68;54.56
65227;BME280;51805;49.012;12.104;2023-05-12T01:15:17;97540.53;;;22.64;54.53
65227;BME280;51805;49.012;12.104;2023-05-12T01:17:46;97539.53;;;22.60;54.57
65227;BME280;51805;49.012;12.104;2023-05-12T01:20:17;97550.31;;;22.65;54.54
65227;BME280;51805;49.012;12.104;2023-05-12T01:22:43;97526.06;;;22.50;54.48
65227;BME280;51805;49.012;12.104;2023-05-12T01:25:10;97544.34;;;22.63;54.40
65227;BME280;51805;49.012;12.104;2023-05-12T01:27:38;97543.31;;;22.59;54.52
65227;BME280;51805;49.012;12.104;2023-05-12T01:30:05;97549.78;;;22.63;54.59
65227;BME280;51805;49.012;12.104;2023-05-12T01:44:42;97518.22;;;22.49;54.28
65227;BME280;51805;49.012;12.104;2023-05-12T01:47:07;97535.47;;;22.58;54.40
65227;BME280;51805;49.012;12.104;2023-05-12T01:49:32;97525.50;;;22.53;54.37
65227;BME280;51805;49.012;12.104;2023-05-12T01:51:58;97538.72;;;22.60;54.12
65227;BME280;51805;49.012;12.104;2023-05-12T01:54:23;97548.38;;;22.66;54.27
65227;BME280;51805;49.012;12.104;2023-05-12T01:56:48;97545.19;;;22.64;54.32
65227;BME280;51805;49.012;12.104;2023-05-12T01:59:14;97525.22;;;22.55;54.36
65227;BME280;51805;49.012;12.104;2023-05-12T02:01:39;97537.63;;;22.61;54.32
65227;BME280;51805;49.012;12.104;2023-05-12T02:04:04;97550.78;;;22.67;54.13
65227;BME280;51805;49.012;12.104;2023-05-12T02:06:29;97527.13;;;22.54;54.26
65227;BME280;51805;49.012;12.104;2023-05-12T02:08:55;97545.66;;;22.66;54.21
65227;BME280;51805;49.012;12.104;2023-05-12T02:11:20;97541.94;;;22.62;54.17
65227;BME280;51805;49.012;12.104;2023-05-12T02:13:45;97529.03;;;22.54;54.37
65227;BME280;51805;49.012;12.104;2023-05-12T02:16:11;97537.88;;;22.59;54.43
65227;BME280;51805;49.012;12.104;2023-05-12T02:18:37;97547.59;;;22.65;54.13
65227;BME280;51805;49.012;12.104;2023-05-12T02:21:02;97539.22;;;22.62;54.17
65227;BME280;51805;49.012;12.104;2023-05-12T02:23:28;97530.63;;;22.55;54.14
65227;BME280;51805;49.012;12.104;2023-05-12T02:25:53;97542.19;;;22.65;54.20
65227;BME280;51805;49.012;12.104;2023-05-12T02:28:18;97528.47;;;22.57;54.35
65227;BME280;51805;49.012;12.104;2023-05-12T02:30:45;97547.06;;;22.63;54.34
65227;BME280;51805;49.012;12.104;2023-05-12T02:33:10;97522.81;;;22.53;54.23
65227;BME280;51805;49.012;12.104;2023-05-12T02:35:35;97526.63;;;22.52;54.17
65227;BME280;51805;49.012;12.104;2023-05-12T02:38:01;97514.97;;;22.52;54.01
65227;BME280;51805;49.012;12.104;2023-05-12T02:40:26;97524.63;;;22.58;54.21
65227;BME280;51805;49.012;12.104;2023-05-12T02:42:51;97528.69;;;22.60;54.08
65227;BME280;51805;49.012;12.104;2023-05-12T02:45:16;97528.41;;;22.62;54.39
65227;BME280;51805;49.012;12.104;2023-05-12T02:47:42;97527.63;;;22.56;54.19
65227;BME280;51805;49.012;12.104;2023-05-12T02:50:07;97525.47;;;22.58;54.11
65227;BME280;51805;49.012;12.104;2023-05-12T02:52:33;97526.28;;;22.59;54.15
65227;BME280;51805;49.012;12.104;2023-05-12T02:54:58;97523.84;;;22.57;54.00
65227;BME280;51805;49.012;12.104;2023-05-12T02:57:23;97527.88;;;22.60;54.08
65227;BME280;51805;49.012;12.104;2023-05-12T02:59:48;97518.44;;;22.57;54.10
65227;BME280;51805;49.012;12.104;2023-05-12T03:02:14;97523.63;;;22.54;54.15
65227;BME280;51805;49.012;12.104;2023-05-12T03:04:39;97511.47;;;22.51;54.15
65227;BME280;51805;49.012;12.104;2023-05-12T03:07:05;97513.59;;;22.54;54.23
65227;BME280;51805;49.012;12.104;2023-05-12T03:09:30;97524.09;;;22.61;53.94
65227;BME280;51805;49.012;12.104;2023-05-12T03:11:55;97498.81;;;22.42;53.97
65227;BME280;51805;49.012;12.104;2023-05-12T03:14:21;97527.88;;;22.60;54.07
65227;BME280;51805;49.012;12.104;2023-05-12T03:16:46;97522.22;;;22.56;54.06
65227;BME280;51805;49.012;12.104;2023-05-12T03:19:11;97530.28;;;22.61;53.87
65227;BME280;51805;49.012;12.104;2023-05-12T03:21:36;97523.31;;;22.55;53.84
65227;BME280;51805;49.012;12.104;2023-05-12T03:24:02;97523.31;;;22.55;53.97
65227;BME280;51805;49.012;12.104;2023-05-12T03:26:27;97527.34;;;22.58;53.95
65227;BME280;51805;49.012;12.104;2023-05-12T03:28:53;97514.72;;;22.48;53.88
65227;BME280;51805;49.012;12.104;2023-05-12T03:31:18;97534.91;;;22.61;54.17
65227;BME280;51805;49.012;12.104;2023-05-12T03:33:43;97526.03;;;22.55;54.34
65227;BME280;51805;49.012;12.104;2023-05-12T03:36:08;97517.94;;;22.50;54.35
65227;BME280;51805;49.012;12.104;2023-05-12T03:38:34;97508.56;;;22.43;54.56
65227;BME280;51805;49.012;12.104;2023-05-12T03:41:03;97516.06;;;22.51;54.73
65227;BME280;51805;49.012;12.104;2023-05-12T03:43:28;97530.06;;;22.58;54.43
65227;BME280;51805;49.012;12.104;2023-05-12T03:45:54;97530.88;;;22.58;55.08
65227;BME280;51805;49.012;12.104;2023-05-12T03:48:19;97514.97;;;22.52;54.86
65227;BME280;51805;49.012;12.104;2023-05-12T03:50:44;97511.72;;;22.50;55.08
65227;BME280;51805;49.012;12.104;2023-05-12T03:53:09;97510.91;;;22.49;55.20
65227;BME280;51805;49.012;12.104;2023-05-12T03:55:35;97529.75;;;22.59;55.31
65227;BME280;51805;49.012;12.104;2023-05-12T03:58:00;97522.75;;;22.58;55.21
65227;BME280;51805;49.012;12.104;2023-05-12T04:00:25;97519.81;;;22.55;55.27
65227;BME280;51805;49.012;12.104;2023-05-12T04:02:50;97519.03;;;22.54;55.38
65227;BME280;51805;49.012;12.104;2023-05-12T04:05:16;97524.88;;;22.61;55.36
65227;BME280;51805;49.012;12.104;2023-05-12T04:07:41;97520.63;;;22.55;54.93
65227;BME280;51805;49.012;12.104;2023-05-12T04:10:07;97514.69;;;22.53;55.37
65227;BME280;51805;49.012;12.104;2023-05-12T04:12:32;97517.69;;;22.52;55.28
65227;BME280;51805;49.012;12.104;2023-05-12T04:14:57;97514.19;;;22.51;55.39
65227;BME280;51805;49.012;12.104;2023-05-12T04:17:23;97517.94;;;22.50;55.36
65227;BME280;51805;49.012;12.104;2023-05-12T04:19:48;97537.34;;;22.62;55.58
65227;BME280;51805;49.012;12.104;2023-05-12T04:22:13;97532.47;;;22.59;55.67
65227;BME280;51805;49.012;12.104;2023-05-12T04:24:39;97524.47;;;22.49;55.44
65227;BME280;51805;49.012;12.104;2023-05-12T04:27:05;97540.06;;;22.62;55.50
65227;BME280;51805;49.012;12.104;2023-05-12T04:29:30;97527.72;;;22.51;55.48
65227;BME280;51805;49.012;12.104;2023-05-12T04:31:55;97539.53;;;22.60;55.46
65227;BME280;51805;49.012;12.104;2023-05-12T04:34:21;97518.50;;;22.47;55.64
65227;BME280;51805;49.012;12.104;2023-05-12T04:36:46;97540.06;;;22.62;55.58
65227;BME280;51805;49.012;12.104;2023-05-12T04:39:11;97526.63;;;22.52;55.54
65227;BME280;51805;49.012;12.104;2023-05-12T04:41:36;97540.69;;;22.54;55.57
65227;BME280;51805;49.012;12.104;2023-05-12T04:44:02;97544.19;;;22.55;55.53
65227;BME280;51805;49.012;12.104;2023-05-12T04:46:27;97540.09;;;22.57;55.63
65227;BME280;51805;49.012;12.104;2023-05-12T04:48:52;97552.78;;;22.62;55.70
65227;BME280;51805;49.012;12.104;2023-05-12T04:51:18;97550.41;;;22.55;55.42
65227;BME280;51805;49.012;12.104;2023-05-12T04:53:43;97543.69;;;22.53;55.44
65227;BME280;51805;49.012;12.104;2023-05-12T04:56:08;97552.53;;;22.58;55.53
65227;BME280;51805;49.012;12.104;2023-05-12T04:58:33;97556.13;;;22.54;55.58
65227;BME280;51805;49.012;12.104;2023-05-12T05:00:59;97546.88;;;22.55;55.47
65227;BME280;51805;49.012;12.104;2023-05-12T05:03:24;97570.13;;;22.61;55.35
65227;BME280;51805;49.012;12.104;2023-05-12T05:05:49;97554.72;;;22.56;55.20
65227;BME280;51805;49.012;12.104;2023-05-12T05:08:15;97562.00;;;22.61;55.54
65227;BME280;51805;49.012;12.104;2023-05-12T05:10:40;97563.09;;;22.60;55.59
65227;BME280;51805;49.012;12.104;2023-05-12T05:13:05;97547.81;;;22.45;55.54
65227;BME280;51805;49.012;12.104;2023-05-12T05:15:30;97559.63;;;22.54;55.47
65227;BME280;51805;49.012;12.104;2023-05-12T05:17:56;97540.75;;;22.44;55.36
65227;BME280;51805;49.012;12.104;2023-05-12T05:20:21;97576.34;;;22.61;55.39
65227;BME280;51805;49.012;12.104;2023-05-12T05:22:46;97549.41;;;22.46;55.28
65227;BME280;51805;49.012;12.104;2023-05-12T05:25:12;97579.03;;;22.61;55.24
65227;BME280;51805;49.012;12.104;2023-05-12T05:27:37;97562.38;;;22.49;55.51
65227;BME280;51805;49.012;12.104;2023-05-12T05:30:04;97572.38;;;22.54;55.42
65227;BME280;51805;49.012;12.104;2023-05-12T05:32:29;97582.03;;;22.60;55.36
65227;BME280;51805;49.012;12.104;2023-05-12T05:34:54;97578.03;;;22.57;54.84
65227;BME280;51805;49.012;12.104;2023-05-12T05:37:20;97571.84;;;22.52;55.33
65227;BME280;51805;49.012;12.104;2023-05-12T05:39:45;97588.84;;;22.57;55.20
65227;BME280;51805;49.012;12.104;2023-05-12T05:42:10;97582.63;;;22.57;55.35
65227;BME280;51805;49.012;12.104;2023-05-12T05:44:35;97588.56;;;22.59;55.32
65227;BME280;51805;49.012;12.104;2023-05-12T05:47:01;97585.63;;;22.55;55.29
65227;BME280;51805;49.012;12.104;2023-05-12T05:49:26;97578.34;;;22.51;55.24
65227;BME280;51805;49.012;12.104;2023-05-12T05:51:51;97586.16;;;22.57;55.20
65227;BME280;51805;49.012;12.104;2023-05-12T05:54:17;97567.03;;;22.44;55.18
65227;BME280;51805;49.012;12.104;2023-05-12T05:56:42;97573.19;;;22.49;55.10
65227;BME280;51805;49.012;12.104;2023-05-12T05:59:07;97582.13;;;22.50;55.00
65227;BME280;51805;49.012;12.104;2023-05-12T06:01:32;97604.53;;;22.60;54.99
65227;BME280;51805;49.012;12.104;2023-05-12T06:03:58;97584.81;;;22.55;55.07
65227;BME280;51805;49.012;12.104;2023-05-12T06:06:23;97584.00;;;22.54;54.99
65227;BME280;51805;49.012;12.104;2023-05-12T06:08:48;97577.00;;;22.48;55.15
65227;BME280;51805;49.012;12.104;2023-05-12T06:11:13;97593.69;;;22.60;54.97
65227;BME280;51805;49.012;12.104;2023-05-12T06:13:39;97601.81;;;22.60;54.90
65227;BME280;51805;49.012;12.104;2023-05-12T06:16:04;97594.84;;;22.54;54.90
65227;BME280;51805;49.012;12.104;2023-05-12T06:18:30;97596.44;;;22.55;54.89
65227;BME280;51805;49.012;12.104;2023-05-12T06:20:55;97602.34;;;22.62;54.73
65227;BME280;51805;49.012;12.104;2023-05-12T06:23:20;97609.38;;;22.63;54.72
65227;BME280;51805;49.012;12.104;2023-05-12T06:25:47;97614.66;;;22.73;54.64
65227;BME280;51805;49.012;12.104;2023-05-12T06:28:13;97620.53;;;22.80;54.40
65227;BME280;51805;49.012;12.104;2023-05-12T06:30:38;97607.91;;;22.71;54.50
65227;BME280;51805;49.012;12.104;2023-05-12T06:33:03;97607.09;;;22.70;54.37
65227;BME280;51805;49.012;12.104;2023-05-12T06:35:29;97625.16;;;22.80;54.43
65227;BME280;51805;49.012;12.104;2023-05-12T06:37:54;97615.22;;;22.70;54.17
65227;BME280;51805;49.012;12.104;2023-05-12T06:40:19;97616.03;;;22.71;54.58
65227;BME280;51805;49.012;12.104;2023-05-12T06:42:44;97626.53;;;22.77;54.55
65227;BME280;51805;49.012;12.104;2023-05-12T06:45:10;97630.81;;;22.83;54.51
65227;BME280;51805;49.012;12.104;2023-05-12T06:47:35;97634.63;;;22.82;54.42
65227;BME280;51805;49.012;12.104;2023-05-12T06:50:01;97617.88;;;22.75;54.36
65227;BME280;51805;49.012;12.104;2023-05-12T06:52:26;97616.88;;;22.71;54.38
65227;BME280;51805;49.012;12.104;2023-05-12T06:54:51;97623.31;;;22.75;54.43
65227;BME280;51805;49.012;12.104;2023-05-12T06:57:16;97624.31;;;22.79;54.32
65227;BME280;51805;49.012;12.104;2023-05-12T06:59:42;97622.19;;;22.76;54.50
65227;BME280;51805;49.012;12.104;2023-05-12T07:02:07;97633.81;;;22.82;54.43
65227;BME280;51805;49.012;12.104;2023-05-12T07:04:32;97621.63;;;22.79;54.49
65227;BME280;51805;49.012;12.104;2023-05-12T07:06:57;97632.41;;;22.84;54.41
65227;BME280;51805;49.012;12.104;2023-05-12T07:09:23;97640.47;;;22.89;54.37
65227;BME280;51805;49.012;12.104;2023-05-12T07:11:48;97642.09;;;22.90;54.68
65227;BME280;51805;49.012;12.104;2023-05-12T07:14:13;97628.63;;;22.85;54.31
65227;BME280;51805;49.012;12.104;2023-05-12T07:16:38;97634.03;;;22.85;54.55
65227;BME280;51805;49.012;12.104;2023-05-12T07:19:04;97636.97;;;22.89;54.38
65227;BME280;51805;49.012;12.104;2023-05-12T07:21:29;97639.38;;;22.90;54.42
65227;BME280;51805;49.012;12.104;2023-05-12T07:23:54;97624.81;;;22.86;54.47
65227;BME280;51805;49.012;12.104;2023-05-12T07:26:20;97639.31;;;22.95;54.38
65227;BME280;51805;49.012;12.104;2023-05-12T07:28:45;97633.75;;;22.87;54.54
65227;BME280;51805;49.012;12.104;2023-05-12T07:31:10;97646.94;;;22.93;54.44
65227;BME280;51805;49.012;12.104;2023-05-12T07:33:35;97647.75;;;22.94;54.53
65227;BME280;51805;49.012;12.104;2023-05-12T07:36:01;97648.28;;;22.96;54.42
65227;BME280;51805;49.012;12.104;2023-05-12T07:38:27;97640.44;;;22.94;54.21
65227;BME280;51805;49.012;12.104;2023-05-12T07:40:52;97638.78;;;22.93;54.39
65227;BME280;51805;49.012;12.104;2023-05-12T07:43:17;97642.63;;;22.92;54.38
65227;BME280;51805;49.012;12.104;2023-05-12T07:45:43;97635.31;;;22.93;54.31
65227;BME280;51805;49.012;12.104;2023-05-12T07:48:09;97659.06;;;23.01;54.39
65227;BME280;51805;49.012;12.104;2023-05-12T07:50:34;97648.75;;;22.98;54.72
65227;BME280;51805;49.012;12.104;2023-05-12T07:53:00;97654.41;;;23.01;54.80
65227;BME280;51805;49.012;12.104;2023-05-12T07:55:25;97639.91;;;22.92;54.92
65227;BME280;51805;49.012;12.104;2023-05-12T07:57:51;97658.25;;;23.00;54.93
65227;BME280;51805;49.012;12.104;2023-05-12T08:00:17;97657.66;;;23.03;54.80
65227;BME280;51805;49.012;12.104;2023-05-12T08:02:42;97643.94;;;22.95;54.68
65227;BME280;51805;49.012;12.104;2023-05-12T08:05:09;97648.56;;;22.94;54.80
65227;BME280;51805;49.012;12.104;2023-05-12T08:07:35;97645.31;;;22.92;54.81
65227;BME280;51805;49.012;12.104;2023-05-12T08:10:01;97646.72;;;22.90;54.92
65227;BME280;51805;49.012;12.104;2023-05-12T08:12:26;97650.69;;;22.97;54.92
65227;BME280;51805;49.012;12.104;2023-05-12T08:14:52;97656.56;;;23.04;54.71
65227;BME280;51805;49.012;12.104;2023-05-12T08:17:17;97658.47;;;23.04;54.75
65227;BME280;51805;49.012;12.104;2023-05-12T08:19:42;97644.97;;;22.99;54.70
65227;BME280;51805;49.012;12.104;2023-05-12T08:22:07;97660.09;;;23.05;54.79
65227;BME280;51805;49.012;12.104;2023-05-12T08:24:33;97653.91;;;22.99;54.76
65227;BME280;51805;49.012;12.104;2023-05-12T08:26:58;97643.63;;;22.96;54.63
65227;BME280;51805;49.012;12.104;2023-05-12T08:29:23;97665.75;;;23.09;54.50
65227;BME280;51805;49.012;12.104;2023-05-12T08:31:48;97660.59;;;23.07;54.55
65227;BME280;51805;49.012;12.104;2023-05-12T08:34:14;97657.66;;;23.03;54.65
65227;BME280;51805;49.012;12.104;2023-05-12T08:36:39;97666.75;;;23.13;54.48
65227;BME280;51805;49.012;12.104;2023-05-12T08:39:05;97668.38;;;23.14;54.59
65227;BME280;51805;49.012;12.104;2023-05-12T08:43:55;97659.50;;;23.08;54.35
65227;BME280;51805;49.012;12.104;2023-05-12T08:46:21;97659.50;;;23.08;54.50
65227;BME280;51805;49.012;12.104;2023-05-12T08:48:49;97668.44;;;23.09;54.15
65227;BME280;51805;49.012;12.104;2023-05-12T08:51:14;97649.00;;;23.01;54.48
65227;BME280;51805;49.012;12.104;2023-05-12T08:53:42;97660.09;;;23.05;54.43
65227;BME280;51805;49.012;12.104;2023-05-12T08:56:09;97669.47;;;23.13;54.28
65227;BME280;51805;49.012;12.104;2023-05-12T08:58:35;97668.38;;;23.14;54.35
65227;BME280;51805;49.012;12.104;2023-05-12T09:01:05;97670.28;;;23.13;54.28
65227;BME280;51805;49.012;12.104;2023-05-12T09:03:32;97656.06;;;23.02;54.18
65227;BME280;51805;49.012;12.104;2023-05-12T09:05:58;97657.91;;;23.07;54.22
65227;BME280;51805;49.012;12.104;2023-05-12T09:08:25;97677.03;;;23.16;54.11
65227;BME280;51805;49.012;12.104;2023-05-12T09:10:54;97676.50;;;23.14;54.35
65227;BME280;51805;49.012;12.104;2023-05-12T09:16:22;97667.88;;;23.12;54.54
65227;BME280;51805;49.012;12.104;2023-05-12T09:18:56;97681.13;;;23.13;54.30
65227;BME280;51805;49.012;12.104;2023-05-12T09:21:22;97684.03;;;23.17;54.21
65227;BME280;51805;49.012;12.104;2023-05-12T09:26:16;97671.66;;;23.11;54.28
65227;BME280;51805;49.012;12.104;2023-05-12T09:28:41;97672.47;;;23.11;54.26
65227;BME280;51805;49.012;12.104;2023-05-12T09:31:21;97680.75;;;23.20;54.12
65227;BME280;51805;49.012;12.104;2023-05-12T09:33:47;97681.63;;;23.15;54.09
65227;BME280;51805;49.012;12.104;2023-05-12T09:36:23;97673.56;;;23.10;54.24
65227;BME280;51805;49.012;12.104;2023-05-12T09:39:02;97681.88;;;23.19;54.13
65227;BME280;51805;49.012;12.104;2023-05-12T09:41:27;97663.09;;;23.03;54.11
65227;BME280;51805;49.012;12.104;2023-05-12T09:43:53;97668.44;;;23.09;54.17
65227;BME280;51805;49.012;12.104;2023-05-12T09:46:18;97680.75;;;23.20;54.10
65227;BME280;51805;49.012;12.104;2023-05-12T09:48:46;97678.03;;;23.20;54.07
65227;BME280;51805;49.012;12.104;2023-05-12T09:51:15;97681.28;;;23.22;53.99
65227;BME280;51805;49.012;12.104;2023-05-12T09:53:41;97673.78;;;23.14;53.96
65227;BME280;51805;49.012;12.104;2023-05-12T09:56:06;97693.75;;;23.23;54.09
65227;BME280;51805;49.012;12.104;2023-05-12T09:58:31;97673.00;;;23.13;53.99
65227;BME280;51805;49.012;12.104;2023-05-12T10:00:57;97670.00;;;23.15;53.93
65227;BME280;51805;49.012;12.104;2023-05-12T10:03:23;97673.19;;;23.17;53.83
65227;BME280;51805;49.012;12.104;2023-05-12T10:05:56;97659.16;;;23.15;54.08
65227;BME280;51805;49.012;12.104;2023-05-12T10:08:47;97676.69;;;23.22;53.99
65227;BME280;51805;49.012;12.104;2023-05-12T10:11:15;97656.50;;;23.10;53.88
65227;BME280;51805;49.012;12.104;2023-05-12T10:13:40;97658.97;;;23.06;54.00
65227;BME280;51805;49.012;12.104;2023-05-12T10:16:08;97664.88;;;23.13;54.01
65227;BME280;51805;49.012;12.104;2023-05-12T10:18:33;97654.66;;;23.05;54.03
65227;BME280;51805;49.012;12.104;2023-05-12T10:20:59;97668.16;;;23.10;53.94
65227;BME280;51805;49.012;12.104;2023-05-12T10:23:26;97678.84;;;23.20;53.74
65227;BME280;51805;49.012;12.104;2023-05-12T10:25:53;97673.19;;;23.17;53.74
65227;BME280;51805;49.012;12.104;2023-05-12T10:28:18;97660.91;;;23.06;53.77
65227;BME280;51805;49.012;12.104;2023-05-12T10:30:44;97677.84;;;23.16;53.70
65227;BME280;51805;49.012;12.104;2023-05-12T10:33:09;97669.03;;;23.06;53.67
65227;BME280;51805;49.012;12.104;2023-05-12T10:35:35;97681.41;;;23.12;53.74
65227;BME280;51805;49.012;12.104;2023-05-12T10:38:05;97674.94;;;23.08;53.58
65227;BME280;51805;49.012;12.104;2023-05-12T10:40:31;97678.47;;;23.08;53.82
65227;BME280;51805;49.012;12.104;2023-05-12T10:42:57;97684.41;;;23.10;53.84
65227;BME280;51805;49.012;12.104;2023-05-12T10:45:23;97674.44;;;23.06;53.65
65227;BME280;51805;49.012;12.104;2023-05-12T10:47:48;97677.66;;;23.08;53.57
65227;BME280;51805;49.012;12.104;2023-05-12T10:50:25;97680.59;;;23.11;53.66
65227;BME280;51805;49.012;12.104;2023-05-12T10:52:54;97681.41;;;23.12;53.49
65227;BME280;51805;49.012;12.104;2023-05-12T10:55:33;97671.75;;;23.06;53.34
65227;BME280;51805;49.012;12.104;2023-05-12T10:58:08;97683.25;;;23.16;53.49
65227;BME280;51805;49.012;12.104;2023-05-12T11:00:43;97680.84;;;23.15;53.38
65227;BME280;51805;49.012;12.104;2023-05-12T11:03:16;97685.69;;;23.18;53.31
65227;BME280;51805;49.012;12.104;2023-05-12T11:05:43;97667.91;;;23.07;53.51
65227;BME280;51805;49.012;12.104;2023-05-12T11:08:08;97673.00;;;23.13;53.42
65227;BME280;51805;49.012;12.104;2023-05-12T11:10:33;97675.19;;;23.11;53.52
65227;BME280;51805;49.012;12.104;2023-05-12T11:12:59;97683.03;;;23.13;53.54
65227;BME280;51805;49.012;12.104;2023-05-12T11:15:24;97688.44;;;23.13;53.36
65227;BME280;51805;49.012;12.104;2023-05-12T11:17:49;97689.47;;;23.17;53.50
65227;BME280;51805;49.012;12.104;2023-05-12T11:20:25;97693.28;;;23.16;53.65
65227;BME280;51805;49.012;12.104;2023-05-12T11:22:50;97670.69;;;23.01;53.63
65227;BME280;51805;49.012;12.104;2023-05-12T11:25:16;97690.13;;;23.09;53.60
65227;BME280;51805;49.012;12.104;2023-05-12T11:27:45;97692.25;;;23.12;53.46
65227;BME280;51805;49.012;12.104;2023-05-12T11:30:11;97652.44;;;22.88;53.38
65227;BME280;51805;49.012;12.104;2023-05-12T11:32:36;97691.44;;;23.11;53.41
65227;BME280;51805;49.012;12.104;2023-05-12T11:35:12;97696.53;;;23.18;53.20
65227;BME280;51805;49.012;12.104;2023-05-12T11:37:39;97700.03;;;23.18;53.33
65227;BME280;51805;49.012;12.104;2023-05-12T11:40:18;97700.84;;;23.19;53.28
65227;BME280;51805;49.012;12.104;2023-05-12T11:42:44;97710.56;;;23.20;53.28
65227;BME280;51805;49.012;12.104;2023-05-12T11:45:24;97683.59;;;23.10;53.39
65227;BME280;51805;49.012;12.104;2023-05-12T11:47:50;97701.38;;;23.21;53.22
65227;BME280;51805;49.012;12.104;2023-05-12T11:50:36;97692.19;;;23.17;53.20
65227;BME280;51805;49.012;12.104;2023-05-12T11:53:02;97705.69;;;23.22;53.27
65227;BME280;51805;49.012;12.104;2023-05-12T11:55:27;97712.19;;;23.26;53.28
65227;BME280;51805;49.012;12.104;2023-05-12T11:57:58;97717.59;;;23.26;53.40
65227;BME280;51805;49.012;12.104;2023-05-12T12:00:31;97706.75;;;23.26;53.43
65227;BME280;51805;49.012;12.104;2023-05-12T12:03:11;97702.94;;;23.27;53.40
65227;BME280;51805;49.012;12.104;2023-05-12T12:05:36;97707.84;;;23.25;53.47
65227;BME280;51805;49.012;12.104;2023-05-12T12:08:06;97698.13;;;23.19;53.45
65227;BME280;51805;49.012;12.104;2023-05-12T12:10:32;97708.38;;;23.22;53.49
65227;BME280;51805;49.012;12.104;2023-05-12T12:12:59;97710.88;;;23.18;53.44
65227;BME280;51805;49.012;12.104;2023-05-12T12:15:24;97671.09;;;22.90;53.50
65227;BME280;51805;49.012;12.104;2023-05-12T12:17:49;97709.78;;;23.19;53.44
65227;BME280;51805;49.012;12.104;2023-05-12T12:20:15;97710.66;;;23.15;53.55
65227;BME280;51805;49.012;12.104;2023-05-12T12:22:40;97717.09;;;23.19;53.47
65227;BME280;51805;49.012;12.104;2023-05-12T12:25:06;97711.97;;;23.17;53.43
65227;BME280;51805;49.012;12.104;2023-05-12T12:27:31;97694.00;;;23.02;53.43
65227;BME280;51805;49.012;12.104;2023-05-12T12:29:56;97725.00;;;23.15;53.48
65227;BME280;51805;49.012;12.104;2023-05-12T12:32:22;97722.66;;;23.09;53.76
65227;BME280;51805;49.012;12.104;2023-05-12T12:34:47;97695.69;;;22.93;53.86
65227;BME280;51805;49.012;12.104;2023-05-12T12:37:12;97726.53;;;23.02;49.75
65227;BME280;51805;49.012;12.104;2023-05-12T12:39:38;97696.56;;;22.65;48.38
65227;BME280;51805;49.012;12.104;2023-05-12T12:42:03;97717.94;;;22.67;47.77
65227;BME280;51805;49.012;12.104;2023-05-12T12:44:29;97711.88;;;22.51;48.10
65227;BME280;51805;49.012;12.104;2023-05-12T12:46:54;97723.19;;;22.53;47.98
65227;BME280;51805;49.012;12.104;2023-05-12T12:49:19;97722.91;;;22.55;47.56
65227;BME280;51805;49.012;12.104;2023-05-12T12:51:45;97716.19;;;22.47;47.21
65227;BME280;51805;49.012;12.104;2023-05-12T12:54:10;97724.84;;;22.54;47.38
65227;BME280;51805;49.012;12.104;2023-05-12T12:56:35;97722.47;;;22.43;47.39
65227;BME280;51805;49.012;12.104;2023-05-12T12:59:00;97717.63;;;22.40;47.48
65227;BME280;51805;49.012;12.104;2023-05-12T13:01:27;97725.94;;;22.48;47.03
65227;BME280;51805;49.012;12.104;2023-05-12T13:03:52;97724.59;;;22.46;47.15
65227;BME280;51805;49.012;12.104;2023-05-12T13:06:17;97711.94;;;22.36;47.15